sensor_id;sensor_type;location;lat;lon;timestamp;pressure;altitude;pressure_sealevel;temperature;humidity
6423;BME280;3244;42.708;23.288;2023-01-09T00:00:14;95365.13;;;1.82;nan
6423;BME280;3244;42.708;23.288;2023-01-09T00:02:41;95358.47;;;1.87;nan
6423;BME280;3244;42.708;23.288;2023-01-09T00:05:09;95364.34;;;1.89;nan
6423;BME280;3244;42.708;23.288;2023-01-09T00:07:37;95361.81;;;1.85;nan
6423;BME280;3244;42.708;23.288;2023-01-09T00:10:04;95360.13;;;1.81;nan
6423;BME280;3244;42.708;23.288;2023-01-09T00:12:32;95355.94;;;1.81;nan
6423;BME280;3244;42.708;23.288;2023-01-09T00:15:00;95355.84;;;1.63;nan
6423;BME280;3244;42.708;23.288;2023-01-09T00:17:28;95352.53;;;1.64;nan
6423;BME280;3244;42.708;23.288;2023-01-09T00:19:55;95355.84;;;1.60;nan
6423;BME280;3244;42.708;23.288;2023-01-09T00:22:22;95354.13;;;1.48;nan
6423;BME280;3244;42.708;23.288;2023-01-09T00:24:49;95346.59;;;1.53;nan
6423;BME280;3244;42.708;23.288;2023-01-09T00:27:16;95344.91;;;1.50;nan
6423;BME280;3244;42.708;23.288;2023-01-09T00:29:43;95346.63;;;1.56;nan
6423;BME280;3244;42.708;23.288;2023-01-09T00:32:10;95357.44;;;1.44;nan
6423;BME280;3244;42.708;23.288;2023-01-09T00:34:38;95349.94;;;1.47;nan
6423;BME280;3244;42.708;23.288;2023-01-09T00:37:05;95358.31;;;1.54;nan
6423;BME280;3244;42.708;23.288;2023-01-09T00:39:36;95351.66;;;1.60;nan
6423;BME280;3244;42.708;23.288;2023-01-09T00:42:04;95347.50;;;1.61;nan
6423;BME280;3244;42.708;23.288;2023-01-09T00:44:34;95350.03;;;1.67;nan
6423;BME280;3244;42.708;23.288;2023-01-09T00:47:06;95345.84;;;1.64;nan
6423;BME280;3244;42.708;23.288;2023-01-09T00:49:36;95349.22;;;1.68;nan
6423;BME280;3244;42.708;23.288;2023-01-09T00:52:05;95353.38;;;1.66;nan
6423;BME280;3244;42.708;23.288;2023-01-09T00:54:33;95345.00;;;1.64;nan
6423;BME280;3244;42.708;23.288;2023-01-09T00:57:00;95345.88;;;1.75;nan
6423;BME280;3244;42.708;23.288;2023-01-09T00:59:27;95343.34;;;1.66;nan
6423;BME280;3244;42.708;23.288;2023-01-09T01:01:54;95346.59;;;1.53;nan
6423;BME280;3244;42.708;23.288;2023-01-09T01:04:21;95354.19;;;1.65;nan
6423;BME280;3244;42.708;23.288;2023-01-09T01:07:06;95354.25;;;1.71;nan
6423;BME280;3244;42.708;23.288;2023-01-09T01:09:50;95341.69;;;1.65;nan
6423;BME280;3244;42.708;23.288;2023-01-09T01:12:17;95344.19;;;1.63;nan
6423;BME280;3244;42.708;23.288;2023-01-09T01:14:44;95335.03;;;1.73;nan
6423;BME280;3244;42.708;23.288;2023-01-09T01:17:10;95337.53;;;1.68;nan
6423;BME280;3244;42.708;23.288;2023-01-09T01:19:37;95325.78;;;1.60;nan
6423;BME280;3244;42.708;23.288;2023-01-09T01:22:04;95327.47;;;1.61;nan
6423;BME280;3244;42.708;23.288;2023-01-09T01:24:32;95330.84;;;1.75;nan
6423;BME280;3244;42.708;23.288;2023-01-09T01:26:59;95330.81;;;1.64;nan
6423;BME280;3244;42.708;23.288;2023-01-09T01:29:26;95331.59;;;1.56;nan
6423;BME280;3244;42.708;23.288;2023-01-09T01:31:52;95325.75;;;1.57;nan
6423;BME280;3244;42.708;23.288;2023-01-09T01:34:19;95322.41;;;1.56;nan
6423;BME280;3244;42.708;23.288;2023-01-09T01:36:46;95314.03;;;1.53;nan
6423;BME280;3244;42.708;23.288;2023-01-09T01:39:13;95319.88;;;1.50;nan
6423;BME280;3244;42.708;23.288;2023-01-09T01:41:41;95308.19;;;1.46;nan
6423;BME280;3244;42.708;23.288;2023-01-09T01:47:07;95291.50;;;1.50;nan
6423;BME280;3244;42.708;23.288;2023-01-09T01:49:34;95297.38;;;1.55;nan
6423;BME280;3244;42.708;23.288;2023-01-09T01:52:01;95295.72;;;1.57;nan
6423;BME280;3244;42.708;23.288;2023-01-09T01:54:28;95287.31;;;1.46;nan
6423;BME280;3244;42.708;23.288;2023-01-09T01:57:01;95290.66;;;1.45;nan
6423;BME280;3244;42.708;23.288;2023-01-09T01:59:32;95275.59;;;1.39;nan
6423;BME280;3244;42.708;23.288;2023-01-09T02:02:02;95288.16;;;1.45;nan
6423;BME280;3244;42.708;23.288;2023-01-09T02:04:31;95280.59;;;1.39;nan
6423;BME280;3244;42.708;23.288;2023-01-09T02:07:02;95286.50;;;1.53;nan
6423;BME280;3244;42.708;23.288;2023-01-09T02:09:30;95267.25;;;1.41;nan
6423;BME280;3244;42.708;23.288;2023-01-09T02:11:58;95279.88;;;1.61;nan
6423;BME280;3244;42.708;23.288;2023-01-09T02:14:28;95269.06;;;1.68;nan
6423;BME280;3244;42.708;23.288;2023-01-09T02:17:03;95274.09;;;1.73;nan
6423;BME280;3244;42.708;23.288;2023-01-09T02:19:59;95276.56;;;1.76;nan
6423;BME280;3244;42.708;23.288;2023-01-09T02:22:39;95272.34;;;1.61;nan
6423;BME280;3244;42.708;23.288;2023-01-09T02:25:27;95279.03;;;1.62;nan
6423;BME280;3244;42.708;23.288;2023-01-09T02:31:12;95281.47;;;1.45;nan
6423;BME280;3244;42.708;23.288;2023-01-09T02:33:49;95272.28;;;1.44;nan
6423;BME280;3244;42.708;23.288;2023-01-09T02:36:25;95271.47;;;1.48;nan
6423;BME280;3244;42.708;23.288;2023-01-09T02:39:05;95272.25;;;1.36;nan
6423;BME280;3244;42.708;23.288;2023-01-09T02:41:39;95262.22;;;1.36;nan
6423;BME280;3244;42.708;23.288;2023-01-09T02:44:14;95257.28;;;1.55;nan
6423;BME280;3244;42.708;23.288;2023-01-09T02:46:42;95254.75;;;1.43;nan
6423;BME280;3244;42.708;23.288;2023-01-09T02:49:09;95258.91;;;1.38;nan
6423;BME280;3244;42.708;23.288;2023-01-09T02:51:41;95256.41;;;1.39;nan
6423;BME280;3244;42.708;23.288;2023-01-09T02:54:21;95256.34;;;1.31;nan
6423;BME280;3244;42.708;23.288;2023-01-09T02:57:02;95256.31;;;1.19;nan
6423;BME280;3244;42.708;23.288;2023-01-09T02:59:42;95255.50;;;1.23;nan
6423;BME280;3244;42.708;23.288;2023-01-09T03:02:27;95264.63;;;1.15;nan
6423;BME280;3244;42.708;23.288;2023-01-09T03:05:05;95261.28;;;1.15;nan
6423;BME280;3244;42.708;23.288;2023-01-09T03:07:36;95263.72;;;1.07;nan
6423;BME280;3244;42.708;23.288;2023-01-09T03:10:12;95240.38;;;1.08;nan
6423;BME280;3244;42.708;23.288;2023-01-09T03:12:42;95253.75;;;1.10;nan
6423;BME280;3244;42.708;23.288;2023-01-09T03:15:11;95252.88;;;1.07;nan
6423;BME280;3244;42.708;23.288;2023-01-09T03:17:42;95252.84;;;0.97;nan
6423;BME280;3244;42.708;23.288;2023-01-09T03:20:13;95253.63;;;0.92;nan
6423;BME280;3244;42.708;23.288;2023-01-09T03:22:46;95261.03;;;0.74;nan
6423;BME280;3244;42.708;23.288;2023-01-09T03:25:18;95270.25;;;0.84;nan
6423;BME280;3244;42.708;23.288;2023-01-09T03:27:45;95266.13;;;0.90;nan
6423;BME280;3244;42.708;23.288;2023-01-09T03:30:12;95255.38;;;1.05;nan
6423;BME280;3244;42.708;23.288;2023-01-09T03:32:38;95268.69;;;0.98;nan
6423;BME280;3244;42.708;23.288;2023-01-09T03:35:07;95260.34;;;0.96;nan
6423;BME280;3244;42.708;23.288;2023-01-09T03:37:34;95252.09;;;1.14;nan
6423;BME280;3244;42.708;23.288;2023-01-09T03:40:01;95255.44;;;1.14;nan
6423;BME280;3244;42.708;23.288;2023-01-09T03:42:27;95254.56;;;1.11;nan
6423;BME280;3244;42.708;23.288;2023-01-09T03:44:54;95253.78;;;1.16;nan
6423;BME280;3244;42.708;23.288;2023-01-09T03:47:21;95252.97;;;1.17;nan
6423;BME280;3244;42.708;23.288;2023-01-09T03:49:48;95256.28;;;1.15;nan
6423;BME280;3244;42.708;23.288;2023-01-09T03:52:16;95264.66;;;1.26;nan
6423;BME280;3244;42.708;23.288;2023-01-09T03:54:42;95262.19;;;1.32;nan
6423;BME280;3244;42.708;23.288;2023-01-09T03:57:09;95258.91;;;1.38;nan
6423;BME280;3244;42.708;23.288;2023-01-09T03:59:36;95262.19;;;1.30;nan
6423;BME280;3244;42.708;23.288;2023-01-09T04:02:02;95258.94;;;1.53;nan
6423;BME280;3244;42.708;23.288;2023-01-09T04:04:29;95253.97;;;1.56;nan
6423;BME280;3244;42.708;23.288;2023-01-09T04:06:56;95253.13;;;1.57;nan
6423;BME280;3244;42.708;23.288;2023-01-09T04:09:24;95242.25;;;1.52;nan
6423;BME280;3244;42.708;23.288;2023-01-09T04:11:51;95253.09;;;1.49;nan
6423;BME280;3244;42.708;23.288;2023-01-09T04:14:17;95247.19;;;1.36;nan
6423;BME280;3244;42.708;23.288;2023-01-09T04:16:44;95252.16;;;1.30;nan
6423;BME280;3244;42.708;23.288;2023-01-09T04:19:11;95250.47;;;1.26;nan
6423;BME280;3244;42.708;23.288;2023-01-09T04:21:37;95248.84;;;1.34;nan
6423;BME280;3244;42.708;23.288;2023-01-09T04:24:05;95250.59;;;1.54;nan
6423;BME280;3244;42.708;23.288;2023-01-09T04:26:33;95251.41;;;1.41;nan
6423;BME280;3244;42.708;23.288;2023-01-09T04:29:00;95246.25;;;1.15;nan
6423;BME280;3244;42.708;23.288;2023-01-09T04:31:26;95247.09;;;1.14;nan
6423;BME280;3244;42.708;23.288;2023-01-09T04:33:53;95245.41;;;1.11;nan
6423;BME280;3244;42.708;23.288;2023-01-09T04:36:20;95247.06;;;1.09;nan
6423;BME280;3244;42.708;23.288;2023-01-09T04:38:46;95236.25;;;1.15;nan
6423;BME280;3244;42.708;23.288;2023-01-09T04:41:13;95237.88;;;1.07;nan
6423;BME280;3244;42.708;23.288;2023-01-09T04:44:02;95240.38;;;1.08;nan
6423;BME280;3244;42.708;23.288;2023-01-09T04:46:29;95235.31;;;1.00;nan
6423;BME280;3244;42.708;23.288;2023-01-09T04:48:55;95239.50;;;0.98;nan
6423;BME280;3244;42.708;23.288;2023-01-09T04:51:22;95240.34;;;1.05;nan
6423;BME280;3244;42.708;23.288;2023-01-09T04:53:49;95235.34;;;0.99;nan
6423;BME280;3244;42.708;23.288;2023-01-09T04:56:15;95234.63;;;1.21;nan
6423;BME280;3244;42.708;23.288;2023-01-09T04:58:42;95236.19;;;1.06;nan
6423;BME280;3244;42.708;23.288;2023-01-09T05:01:10;95237.78;;;0.91;nan
6423;BME280;3244;42.708;23.288;2023-01-09T05:03:37;95229.38;;;0.83;nan
6423;BME280;3244;42.708;23.288;2023-01-09T05:06:04;95231.91;;;0.88;nan
6423;BME280;3244;42.708;23.288;2023-01-09T05:08:31;95228.59;;;0.89;nan
6423;BME280;3244;42.708;23.288;2023-01-09T05:10:57;95230.25;;;0.87;nan
6423;BME280;3244;42.708;23.288;2023-01-09T05:13:24;95234.50;;;0.97;nan
6423;BME280;3244;42.708;23.288;2023-01-09T05:15:51;95244.50;;;0.95;nan
6423;BME280;3244;42.708;23.288;2023-01-09T05:18:19;95240.31;;;0.93;nan
6423;BME280;3244;42.708;23.288;2023-01-09T05:20:46;95245.31;;;0.96;nan
6423;BME280;3244;42.708;23.288;2023-01-09T05:23:13;95248.66;;;1.01;nan
6423;BME280;3244;42.708;23.288;2023-01-09T05:25:39;95247.00;;;1.03;nan
6423;BME280;3244;42.708;23.288;2023-01-09T05:28:06;95248.72;;;1.07;nan
6423;BME280;3244;42.708;23.288;2023-01-09T05:30:33;95242.84;;;1.05;nan
6423;BME280;3244;42.708;23.288;2023-01-09T05:32:59;95246.16;;;0.99;nan
6423;BME280;3244;42.708;23.288;2023-01-09T05:35:27;95240.16;;;0.75;nan
6423;BME280;3244;42.708;23.288;2023-01-09T05:37:54;95243.50;;;0.74;nan
6423;BME280;3244;42.708;23.288;2023-01-09T05:40:21;95223.50;;;0.74;nan
6423;BME280;3244;42.708;23.288;2023-01-09T05:42:48;95230.22;;;0.84;nan
6423;BME280;3244;42.708;23.288;2023-01-09T05:45:14;95230.19;;;0.81;nan
6423;BME280;3244;42.708;23.288;2023-01-09T05:47:43;95228.56;;;0.86;nan
6423;BME280;3244;42.708;23.288;2023-01-09T05:50:10;95216.97;;;1.03;nan
6423;BME280;3244;42.708;23.288;2023-01-09T05:52:39;95226.97;;;0.97;nan
6423;BME280;3244;42.708;23.288;2023-01-09T05:55:07;95227.69;;;0.81;nan
6423;BME280;3244;42.708;23.288;2023-01-09T05:57:34;95230.25;;;0.87;nan
6423;BME280;3244;42.708;23.288;2023-01-09T06:00:01;95231.16;;;0.98;nan
6423;BME280;3244;42.708;23.288;2023-01-09T06:02:27;95232.09;;;1.24;nan
6423;BME280;3244;42.708;23.288;2023-01-09T06:04:54;95227.97;;;1.29;nan
6423;BME280;3244;42.708;23.288;2023-01-09T06:07:21;95218.81;;;1.34;nan
6423;BME280;3244;42.708;23.288;2023-01-09T06:09:49;95215.53;;;1.45;nan
6423;BME280;3244;42.708;23.288;2023-01-09T06:12:15;95214.69;;;1.50;nan
6423;BME280;3244;42.708;23.288;2023-01-09T06:14:42;95207.22;;;1.58;nan
6423;BME280;3244;42.708;23.288;2023-01-09T06:17:09;95212.28;;;1.81;nan
6423;BME280;3244;42.708;23.288;2023-01-09T06:19:36;95208.16;;;1.98;nan
6423;BME280;3244;42.708;23.288;2023-01-09T06:22:02;95215.66;;;2.05;nan
6423;BME280;3244;42.708;23.288;2023-01-09T06:24:29;95212.34;;;2.07;nan
6423;BME280;3244;42.708;23.288;2023-01-09T06:26:57;95207.31;;;2.08;nan
6423;BME280;3244;42.708;23.288;2023-01-09T06:29:24;95207.34;;;2.16;nan
6423;BME280;3244;42.708;23.288;2023-01-09T06:31:51;95212.38;;;2.22;nan
6423;BME280;3244;42.708;23.288;2023-01-09T06:34:17;95215.72;;;2.39;nan
6423;BME280;3244;42.708;23.288;2023-01-09T06:36:44;95212.34;;;2.55;nan
6423;BME280;3244;42.708;23.288;2023-01-09T06:39:11;95198.97;;;2.71;nan
6423;BME280;3244;42.708;23.288;2023-01-09T06:41:38;95209.81;;;2.89;nan
6423;BME280;3244;42.708;23.288;2023-01-09T06:44:06;95208.94;;;2.99;nan
6423;BME280;3244;42.708;23.288;2023-01-09T06:46:33;95214.78;;;3.18;nan
6423;BME280;3244;42.708;23.288;2023-01-09T06:48:59;95216.41;;;3.29;nan
6423;BME280;3244;42.708;23.288;2023-01-09T06:51:26;95210.50;;;3.46;nan
6423;BME280;3244;42.708;23.288;2023-01-09T06:53:53;95209.63;;;3.53;nan
6423;BME280;3244;42.708;23.288;2023-01-09T06:56:19;95217.09;;;3.68;nan
6423;BME280;3244;42.708;23.288;2023-01-09T06:58:46;95208.63;;;3.87;nan
6423;BME280;3244;42.708;23.288;2023-01-09T07:01:14;95212.69;;;4.06;nan
6423;BME280;3244;42.708;23.288;2023-01-09T07:03:41;95211.66;;;4.35;nan
6423;BME280;3244;42.708;23.288;2023-01-09T07:06:08;95207.16;;;4.70;nan
6423;BME280;3244;42.708;23.288;2023-01-09T07:08:34;95219.34;;;5.16;nan
6423;BME280;3244;42.708;23.288;2023-01-09T07:11:01;95207.09;;;5.59;nan
6423;BME280;3244;42.708;23.288;2023-01-09T07:13:28;95202.69;;;6.39;nan
6423;BME280;3244;42.708;23.288;2023-01-09T07:15:55;95200.53;;;8.01;nan
6423;BME280;3244;42.708;23.288;2023-01-09T07:18:23;95183.28;;;10.13;nan
6423;BME280;3244;42.708;23.288;2023-01-09T07:20:50;95184.00;;;12.17;nan
6423;BME280;3244;42.708;23.288;2023-01-09T07:23:16;95185.59;;;13.46;nan
6423;BME280;3244;42.708;23.288;2023-01-09T07:25:43;95170.31;;;14.40;nan
6423;BME280;3244;42.708;23.288;2023-01-09T07:28:10;95176.28;;;14.94;nan
6423;BME280;3244;42.708;23.288;2023-01-09T07:30:37;95174.50;;;14.05;nan
6423;BME280;3244;42.708;23.288;2023-01-09T07:33:03;95183.03;;;12.85;nan
6423;BME280;3244;42.708;23.288;2023-01-09T07:35:32;95184.78;;;13.05;nan
6423;BME280;3244;42.708;23.288;2023-01-09T07:37:58;95182.06;;;13.30;nan
6423;BME280;3244;42.708;23.288;2023-01-09T07:40:25;95178.75;;;13.86;nan
6423;BME280;3244;42.708;23.288;2023-01-09T07:42:52;95184.09;;;13.22;nan
6423;BME280;3244;42.708;23.288;2023-01-09T07:45:19;95188.97;;;12.20;nan
6423;BME280;3244;42.708;23.288;2023-01-09T07:47:46;95185.81;;;11.19;nan
6423;BME280;3244;42.708;23.288;2023-01-09T07:50:13;95198.75;;;10.62;nan
6423;BME280;3244;42.708;23.288;2023-01-09T07:52:43;95203.38;;;11.02;nan
6423;BME280;3244;42.708;23.288;2023-01-09T07:55:10;95210.31;;;10.97;nan
6423;BME280;3244;42.708;23.288;2023-01-09T07:57:36;95203.59;;;10.41;nan
6423;BME280;3244;42.708;23.288;2023-01-09T08:00:04;95207.66;;;9.89;nan
6423;BME280;3244;42.708;23.288;2023-01-09T08:02:33;95213.91;;;9.47;nan
6423;BME280;3244;42.708;23.288;2023-01-09T08:05:00;95215.94;;;9.02;nan
6423;BME280;3244;42.708;23.288;2023-01-09T08:07:26;95214.81;;;8.42;nan
6423;BME280;3244;42.708;23.288;2023-01-09T08:09:55;95219.78;;;8.08;nan
6423;BME280;3244;42.708;23.288;2023-01-09T08:12:22;95218.25;;;8.01;nan
6423;BME280;3244;42.708;23.288;2023-01-09T08:14:48;95214.25;;;7.91;nan
6423;BME280;3244;42.708;23.288;2023-01-09T08:17:16;95223.25;;;8.04;nan
6423;BME280;3244;42.708;23.288;2023-01-09T08:19:43;95220.44;;;7.76;nan
6423;BME280;3244;42.708;23.288;2023-01-09T08:22:09;95224.06;;;7.65;nan
6423;BME280;3244;42.708;23.288;2023-01-09T08:24:36;95217.50;;;7.55;nan
6423;BME280;3244;42.708;23.288;2023-01-09T08:27:04;95216.63;;;7.57;nan
6423;BME280;3244;42.708;23.288;2023-01-09T08:29:31;95214.00;;;7.62;nan
6423;BME280;3244;42.708;23.288;2023-01-09T08:31:58;95217.44;;;7.58;nan
6423;BME280;3244;42.708;23.288;2023-01-09T08:34:24;95222.06;;;7.37;nan
6423;BME280;3244;42.708;23.288;2023-01-09T08:39:26;95227.63;;;7.10;nan
6423;BME280;3244;42.708;23.288;2023-01-09T08:41:53;95216.78;;;7.03;nan
6423;BME280;3244;42.708;23.288;2023-01-09T08:44:38;95210.72;;;7.12;nan
6423;BME280;3244;42.708;23.288;2023-01-09T08:47:23;95217.69;;;7.45;nan
6423;BME280;3244;42.708;23.288;2023-01-09T08:49:50;95201.38;;;8.00;nan
6423;BME280;3244;42.708;23.288;2023-01-09T08:52:17;95199.66;;;8.76;nan
6423;BME280;3244;42.708;23.288;2023-01-09T08:54:44;95193.84;;;9.39;nan
6423;BME280;3244;42.708;23.288;2023-01-09T08:57:11;95190.44;;;9.70;nan
6423;BME280;3244;42.708;23.288;2023-01-09T08:59:39;95189.56;;;10.00;nan
6423;BME280;3244;42.708;23.288;2023-01-09T09:02:05;95191.50;;;9.92;nan
6423;BME280;3244;42.708;23.288;2023-01-09T09:04:32;95183.78;;;9.66;nan
6423;BME280;3244;42.708;23.288;2023-01-09T09:06:59;95183.63;;;9.41;nan
6423;BME280;3244;42.708;23.288;2023-01-09T09:09:26;95182.94;;;8.69;nan
6423;BME280;3244;42.708;23.288;2023-01-09T09:11:52;95177.25;;;8.23;nan
6423;BME280;3244;42.708;23.288;2023-01-09T09:14:19;95171.47;;;7.79;nan
6423;BME280;3244;42.708;23.288;2023-01-09T09:17:05;95164.25;;;7.62;nan
6423;BME280;3244;42.708;23.288;2023-01-09T09:19:31;95155.53;;;7.75;nan
6423;BME280;3244;42.708;23.288;2023-01-09T09:21:58;95162.69;;;7.95;nan
6423;BME280;3244;42.708;23.288;2023-01-09T09:24:25;95148.91;;;8.08;nan
6423;BME280;3244;42.708;23.288;2023-01-09T09:26:52;95139.47;;;8.16;nan
6423;BME280;3244;42.708;23.288;2023-01-09T09:29:18;95139.84;;;8.37;nan
6423;BME280;3244;42.708;23.288;2023-01-09T09:31:45;95130.16;;;8.52;nan
6423;BME280;3244;42.708;23.288;2023-01-09T09:34:13;95137.25;;;8.40;nan
6423;BME280;3244;42.708;23.288;2023-01-09T09:36:40;95126.88;;;8.13;nan
6423;BME280;3244;42.708;23.288;2023-01-09T09:39:07;95120.94;;;8.14;nan
6423;BME280;3244;42.708;23.288;2023-01-09T09:42:03;95104.13;;;8.12;nan
6423;BME280;3244;42.708;23.288;2023-01-09T09:44:58;95088.94;;;7.75;nan
6423;BME280;3244;42.708;23.288;2023-01-09T09:47:38;95093.66;;;7.90;nan
6423;BME280;3244;42.708;23.288;2023-01-09T09:50:27;95081.75;;;8.29;nan
6423;BME280;3244;42.708;23.288;2023-01-09T09:53:01;95073.72;;;8.47;nan
6423;BME280;3244;42.708;23.288;2023-01-09T09:55:33;95072.59;;;8.24;nan
6423;BME280;3244;42.708;23.288;2023-01-09T09:58:03;95058.94;;;8.31;nan
6423;BME280;3244;42.708;23.288;2023-01-09T10:00:32;95046.28;;;8.31;nan
6423;BME280;3244;42.708;23.288;2023-01-09T10:03:02;95047.44;;;8.17;nan
6423;BME280;3244;42.708;23.288;2023-01-09T10:05:33;95025.69;;;8.10;nan
6423;BME280;3244;42.708;23.288;2023-01-09T10:08:03;95035.72;;;8.15;nan
6423;BME280;3244;42.708;23.288;2023-01-09T10:10:34;95034.28;;;8.03;nan
6423;BME280;3244;42.708;23.288;2023-01-09T10:13:03;95021.44;;;8.12;nan
6423;BME280;3244;42.708;23.288;2023-01-09T10:15:56;95010.66;;;8.04;nan
6423;BME280;3244;42.708;23.288;2023-01-09T10:18:33;95011.97;;;7.85;nan
6423;BME280;3244;42.708;23.288;2023-01-09T10:21:11;95009.44;;;7.85;nan
6423;BME280;3244;42.708;23.288;2023-01-09T10:23:54;94995.84;;;7.89;nan
6423;BME280;3244;42.708;23.288;2023-01-09T10:26:27;94997.47;;;7.92;nan
6423;BME280;3244;42.708;23.288;2023-01-09T10:32:28;94995.09;;;8.52;nan
6423;BME280;3244;42.708;23.288;2023-01-09T10:35:09;94992.97;;;8.99;nan
6423;BME280;3244;42.708;23.288;2023-01-09T10:37:46;94980.25;;;9.00;nan
6423;BME280;3244;42.708;23.288;2023-01-09T10:40:21;94967.81;;;9.20;nan
6423;BME280;3244;42.708;23.288;2023-01-09T10:42:52;94966.91;;;9.23;nan
6423;BME280;3244;42.708;23.288;2023-01-09T10:45:25;94960.50;;;9.11;nan
6423;BME280;3244;42.708;23.288;2023-01-09T10:47:59;94963.38;;;8.99;nan
6423;BME280;3244;42.708;23.288;2023-01-09T10:50:30;94960.00;;;8.69;nan
6423;BME280;3244;42.708;23.288;2023-01-09T10:53:04;94949.69;;;8.75;nan
6423;BME280;3244;42.708;23.288;2023-01-09T10:55:37;94951.31;;;8.78;nan
6423;BME280;3244;42.708;23.288;2023-01-09T10:58:10;94932.00;;;8.74;nan
6423;BME280;3244;42.708;23.288;2023-01-09T11:00:38;94934.75;;;8.66;nan
6423;BME280;3244;42.708;23.288;2023-01-09T11:03:10;94923.22;;;8.56;nan
6423;BME280;3244;42.708;23.288;2023-01-09T11:05:37;94913.53;;;8.41;nan
6423;BME280;3244;42.708;23.288;2023-01-09T11:08:11;94920.94;;;8.47;nan
6423;BME280;3244;42.708;23.288;2023-01-09T11:10:47;94921.03;;;8.44;nan
6423;BME280;3244;42.708;23.288;2023-01-09T11:13:18;94908.69;;;8.32;nan
6423;BME280;3244;42.708;23.288;2023-01-09T11:15:45;94916.75;;;8.15;nan
6423;BME280;3244;42.708;23.288;2023-01-09T11:18:18;94917.84;;;8.37;nan
6423;BME280;3244;42.708;23.288;2023-01-09T11:20:45;94911.34;;;8.27;nan
6423;BME280;3244;42.708;23.288;2023-01-09T11:23:29;94917.09;;;8.34;nan
6423;BME280;3244;42.708;23.288;2023-01-09T11:25:59;94903.63;;;8.32;nan
6423;BME280;3244;42.708;23.288;2023-01-09T11:28:26;94900.09;;;8.39;nan
6423;BME280;3244;42.708;23.288;2023-01-09T11:30:55;94900.13;;;8.37;nan
6423;BME280;3244;42.708;23.288;2023-01-09T11:33:25;94893.28;;;8.41;nan
6423;BME280;3244;42.708;23.288;2023-01-09T11:35:59;94898.63;;;8.29;nan
6423;BME280;3244;42.708;23.288;2023-01-09T11:38:29;94893.38;;;8.38;nan
6423;BME280;3244;42.708;23.288;2023-01-09T11:40:58;94889.41;;;8.59;nan
6423;BME280;3244;42.708;23.288;2023-01-09T11:43:29;94886.00;;;8.60;nan
6423;BME280;3244;42.708;23.288;2023-01-09T11:45:59;94888.56;;;8.58;nan
6423;BME280;3244;42.708;23.288;2023-01-09T11:48:37;94877.19;;;8.42;nan
6423;BME280;3244;42.708;23.288;2023-01-09T11:51:16;94884.31;;;8.28;nan
6423;BME280;3244;42.708;23.288;2023-01-09T11:54:02;94887.84;;;8.22;nan
6423;BME280;3244;42.708;23.288;2023-01-09T11:56:35;94883.00;;;8.14;nan
6423;BME280;3244;42.708;23.288;2023-01-09T11:59:08;94887.25;;;8.14;nan
6423;BME280;3244;42.708;23.288;2023-01-09T12:04:34;94872.56;;;7.94;nan
6423;BME280;3244;42.708;23.288;2023-01-09T12:07:29;94870.16;;;7.91;nan
6423;BME280;3244;42.708;23.288;2023-01-09T12:10:08;94848.84;;;7.98;nan
6423;BME280;3244;42.708;23.288;2023-01-09T12:12:46;94860.47;;;8.05;nan
6423;BME280;3244;42.708;23.288;2023-01-09T12:15:22;94847.72;;;8.08;nan
6423;BME280;3244;42.708;23.288;2023-01-09T12:18:01;94844.13;;;7.86;nan
6423;BME280;3244;42.708;23.288;2023-01-09T12:20:43;94838.59;;;7.72;nan
6423;BME280;3244;42.708;23.288;2023-01-09T12:23:28;94839.97;;;7.83;nan
6423;BME280;3244;42.708;23.288;2023-01-09T12:26:07;94835.97;;;7.75;nan
6423;BME280;3244;42.708;23.288;2023-01-09T12:28:50;94824.16;;;7.75;nan
6423;BME280;3244;42.708;23.288;2023-01-09T12:31:32;94834.03;;;7.84;nan
6423;BME280;3244;42.708;23.288;2023-01-09T12:34:15;94832.28;;;7.88;nan
6423;BME280;3244;42.708;23.288;2023-01-09T12:36:52;94830.00;;;7.77;nan
6423;BME280;3244;42.708;23.288;2023-01-09T12:39:29;94836.25;;;7.66;nan
6423;BME280;3244;42.708;23.288;2023-01-09T12:44:58;94807.75;;;7.59;nan
6423;BME280;3244;42.708;23.288;2023-01-09T12:47:41;94806.25;;;7.50;nan
6423;BME280;3244;42.708;23.288;2023-01-09T12:50:27;94812.34;;;7.43;nan
6423;BME280;3244;42.708;23.288;2023-01-09T12:53:04;94814.75;;;7.48;nan
6423;BME280;3244;42.708;23.288;2023-01-09T12:55:37;94808.78;;;7.50;nan
6423;BME280;3244;42.708;23.288;2023-01-09T12:58:13;94804.81;;;7.42;nan
6423;BME280;3244;42.708;23.288;2023-01-09T13:00:46;94803.34;;;7.33;nan
6423;BME280;3244;42.708;23.288;2023-01-09T13:03:19;94794.81;;;7.37;nan
6423;BME280;3244;42.708;23.288;2023-01-09T13:05:50;94799.63;;;7.46;nan
6423;BME280;3244;42.708;23.288;2023-01-09T13:08:21;94795.94;;;7.60;nan
6423;BME280;3244;42.708;23.288;2023-01-09T13:10:51;94782.25;;;7.67;nan
6423;BME280;3244;42.708;23.288;2023-01-09T13:13:25;94790.59;;;7.69;nan
6423;BME280;3244;42.708;23.288;2023-01-09T13:15:56;94787.03;;;7.76;nan
6423;BME280;3244;42.708;23.288;2023-01-09T13:18:31;94796.50;;;7.69;nan
6423;BME280;3244;42.708;23.288;2023-01-09T13:20:59;94795.78;;;7.66;nan
6423;BME280;3244;42.708;23.288;2023-01-09T13:23:30;94772.88;;;7.39;nan
6423;BME280;3244;42.708;23.288;2023-01-09T13:26:02;94776.94;;;7.43;nan
6423;BME280;3244;42.708;23.288;2023-01-09T13:28:35;94766.19;;;7.37;nan
6423;BME280;3244;42.708;23.288;2023-01-09T13:31:33;94779.88;;;7.28;nan
6423;BME280;3244;42.708;23.288;2023-01-09T13:34:08;94777.50;;;7.22;nan
6423;BME280;3244;42.708;23.288;2023-01-09T13:36:38;94783.59;;;7.15;nan
6423;BME280;3244;42.708;23.288;2023-01-09T13:39:05;94776.00;;;7.15;nan
6423;BME280;3244;42.708;23.288;2023-01-09T13:41:45;94774.72;;;6.99;nan
6423;BME280;3244;42.708;23.288;2023-01-09T13:44:31;94778.91;;;7.00;nan
6423;BME280;3244;42.708;23.288;2023-01-09T13:46:59;94787.50;;;6.93;nan
6423;BME280;3244;42.708;23.288;2023-01-09T13:52:28;94777.75;;;6.77;nan
6423;BME280;3244;42.708;23.288;2023-01-09T13:55:00;94781.06;;;6.79;nan
6423;BME280;3244;42.708;23.288;2023-01-09T13:57:29;94779.47;;;6.75;nan
6423;BME280;3244;42.708;23.288;2023-01-09T14:03:12;94779.97;;;6.54;nan
6423;BME280;3244;42.708;23.288;2023-01-09T14:06:13;94782.00;;;6.40;nan
6423;BME280;3244;42.708;23.288;2023-01-09T14:08:42;94787.75;;;6.45;nan
6423;BME280;3244;42.708;23.288;2023-01-09T14:11:17;94778.50;;;6.44;nan
6423;BME280;3244;42.708;23.288;2023-01-09T14:13:46;94773.59;;;6.39;nan
6423;BME280;3244;42.708;23.288;2023-01-09T14:16:20;94768.03;;;6.24;nan
6423;BME280;3244;42.708;23.288;2023-01-09T14:18:51;94765.53;;;6.22;nan
6423;BME280;3244;42.708;23.288;2023-01-09T14:21:19;94763.72;;;6.29;nan
6423;BME280;3244;42.708;23.288;2023-01-09T14:23:54;94762.13;;;6.25;nan
6423;BME280;3244;42.708;23.288;2023-01-09T14:26:41;94768.94;;;6.20;nan